sensor_id;sensor_type;location;lat;lon;timestamp;P1;durP1;ratioP1;P2;durP2;ratioP2
41219;SDS011;26951;47.338;9.196;2023-02-04T00:01:40;3.33;;;2.70;;
41219;SDS011;26951;47.338;9.196;2023-02-04T00:04:24;3.72;;;2.85;;
41219;SDS011;26951;47.338;9.196;2023-02-04T00:07:08;4.85;;;2.85;;
41219;SDS011;26951;47.338;9.196;2023-02-04T00:09:52;3.30;;;2.90;;
41219;SDS011;26951;47.338;9.196;2023-02-04T00:12:36;3.47;;;3.13;;
41219;SDS011;26951;47.338;9.196;2023-02-04T00:15:20;4.60;;;3.38;;
41219;SDS011;26951;47.338;9.196;2023-02-04T00:18:04;3.33;;;2.70;;
41219;SDS011;26951;47.338;9.196;2023-02-04T00:20:50;4.57;;;3.50;;
41219;SDS011;26951;47.338;9.196;2023-02-04T00:23:34;3.72;;;2.92;;
41219;SDS011;26951;47.338;9.196;2023-02-04T00:26:18;4.15;;;3.22;;
41219;SDS011;26951;47.338;9.196;2023-02-04T00:29:02;3.80;;;3.13;;
41219;SDS011;26951;47.338;9.196;2023-02-04T00:31:46;4.72;;;3.45;;
41219;SDS011;26951;47.338;9.196;2023-02-04T00:34:30;5.20;;;3.47;;
41219;SDS011;26951;47.338;9.196;2023-02-04T00:37:15;4.47;;;3.25;;
41219;SDS011;26951;47.338;9.196;2023-02-04T00:39:58;4.53;;;3.33;;
41219;SDS011;26951;47.338;9.196;2023-02-04T00:42:43;4.47;;;3.63;;
41219;SDS011;26951;47.338;9.196;2023-02-04T00:45:27;5.47;;;4.00;;
41219;SDS011;26951;47.338;9.196;2023-02-04T00:48:11;3.45;;;3.13;;
41219;SDS011;26951;47.338;9.196;2023-02-04T00:50:55;3.38;;;2.80;;
41219;SDS011;26951;47.338;9.196;2023-02-04T00:53:40;4.32;;;3.10;;
41219;SDS011;26951;47.338;9.196;2023-02-04T00:56:24;3.55;;;2.95;;
41219;SDS011;26951;47.338;9.196;2023-02-04T00:59:08;3.92;;;3.35;;
41219;SDS011;26951;47.338;9.196;2023-02-04T01:01:52;3.55;;;3.17;;
41219;SDS011;26951;47.338;9.196;2023-02-04T01:04:37;3.72;;;3.22;;
41219;SDS011;26951;47.338;9.196;2023-02-04T01:07:22;4.07;;;3.15;;
41219;SDS011;26951;47.338;9.196;2023-02-04T01:10:06;3.55;;;3.20;;
41219;SDS011;26951;47.338;9.196;2023-02-04T01:12:50;4.78;;;3.17;;
41219;SDS011;26951;47.338;9.196;2023-02-04T01:15:35;4.65;;;3.28;;
41219;SDS011;26951;47.338;9.196;2023-02-04T01:18:19;5.25;;;3.08;;
41219;SDS011;26951;47.338;9.196;2023-02-04T01:21:03;4.70;;;3.22;;
41219;SDS011;26951;47.338;9.196;2023-02-04T01:23:47;3.35;;;3.03;;
41219;SDS011;26951;47.338;9.196;2023-02-04T01:26:32;4.22;;;3.00;;
41219;SDS011;26951;47.338;9.196;2023-02-04T01:29:17;3.63;;;2.78;;
41219;SDS011;26951;47.338;9.196;2023-02-04T01:32:01;3.92;;;2.80;;
41219;SDS011;26951;47.338;9.196;2023-02-04T01:34:45;2.88;;;2.53;;
41219;SDS011;26951;47.338;9.196;2023-02-04T01:37:30;5.05;;;2.80;;
41219;SDS011;26951;47.338;9.196;2023-02-04T01:40:14;4.10;;;2.95;;
41219;SDS011;26951;47.338;9.196;2023-02-04T01:42:58;2.72;;;2.30;;
41219;SDS011;26951;47.338;9.196;2023-02-04T01:45:43;4.88;;;2.50;;
41219;SDS011;26951;47.338;9.196;2023-02-04T01:48:28;2.42;;;2.20;;
41219;SDS011;26951;47.338;9.196;2023-02-04T01:51:13;3.92;;;1.95;;
41219;SDS011;26951;47.338;9.196;2023-02-04T01:53:59;2.75;;;1.90;;
41219;SDS011;26951;47.338;9.196;2023-02-04T01:56:44;4.43;;;2.00;;
41219;SDS011;26951;47.338;9.196;2023-02-04T01:59:30;2.55;;;2.00;;
41219;SDS011;26951;47.338;9.196;2023-02-04T02:05:21;2.40;;;2.00;;
41219;SDS011;26951;47.338;9.196;2023-02-04T02:08:08;2.50;;;2.20;;
41219;SDS011;26951;47.338;9.196;2023-02-04T02:10:53;1.85;;;1.67;;
41219;SDS011;26951;47.338;9.196;2023-02-04T02:13:38;2.33;;;2.08;;
41219;SDS011;26951;47.338;9.196;2023-02-04T02:16:22;3.72;;;2.00;;
41219;SDS011;26951;47.338;9.196;2023-02-04T02:19:06;2.55;;;2.10;;
41219;SDS011;26951;47.338;9.196;2023-02-04T02:21:57;2.72;;;2.08;;
41219;SDS011;26951;47.338;9.196;2023-02-04T02:24:47;2.67;;;1.90;;
41219;SDS011;26951;47.338;9.196;2023-02-04T02:27:31;2.53;;;2.00;;
41219;SDS011;26951;47.338;9.196;2023-02-04T02:30:16;2.15;;;1.60;;
41219;SDS011;26951;47.338;9.196;2023-02-04T02:33:02;2.20;;;1.70;;
41219;SDS011;26951;47.338;9.196;2023-02-04T02:35:47;1.90;;;1.70;;
41219;SDS011;26951;47.338;9.196;2023-02-04T02:38:31;2.22;;;1.73;;
41219;SDS011;26951;47.338;9.196;2023-02-04T02:41:15;2.95;;;1.60;;
41219;SDS011;26951;47.338;9.196;2023-02-04T02:44:00;2.42;;;1.80;;
41219;SDS011;26951;47.338;9.196;2023-02-04T02:46:45;2.17;;;1.60;;
41219;SDS011;26951;47.338;9.196;2023-02-04T02:49:31;1.95;;;1.60;;
41219;SDS011;26951;47.338;9.196;2023-02-04T02:52:19;3.08;;;2.00;;
41219;SDS011;26951;47.338;9.196;2023-02-04T02:55:06;1.60;;;1.48;;
41219;SDS011;26951;47.338;9.196;2023-02-04T02:57:59;1.58;;;1.20;;
41219;SDS011;26951;47.338;9.196;2023-02-04T03:00:43;6.03;;;2.03;;
41219;SDS011;26951;47.338;9.196;2023-02-04T03:03:29;1.52;;;1.42;;
41219;SDS011;26951;47.338;9.196;2023-02-04T03:06:18;1.67;;;1.33;;
41219;SDS011;26951;47.338;9.196;2023-02-04T03:09:05;2.08;;;1.40;;
41219;SDS011;26951;47.338;9.196;2023-02-04T03:11:50;1.98;;;1.38;;
41219;SDS011;26951;47.338;9.196;2023-02-04T03:14:34;1.92;;;1.38;;
41219;SDS011;26951;47.338;9.196;2023-02-04T03:17:20;1.92;;;1.40;;
41219;SDS011;26951;47.338;9.196;2023-02-04T03:20:05;1.38;;;1.20;;
41219;SDS011;26951;47.338;9.196;2023-02-04T03:22:50;2.22;;;1.48;;
41219;SDS011;26951;47.338;9.196;2023-02-04T03:25:35;1.00;;;0.90;;
41219;SDS011;26951;47.338;9.196;2023-02-04T03:28:19;1.10;;;1.00;;
41219;SDS011;26951;47.338;9.196;2023-02-04T03:31:03;1.70;;;1.20;;
41219;SDS011;26951;47.338;9.196;2023-02-04T03:33:47;1.48;;;1.38;;
41219;SDS011;26951;47.338;9.196;2023-02-04T03:36:31;1.75;;;1.63;;
41219;SDS011;26951;47.338;9.196;2023-02-04T03:39:16;1.30;;;1.20;;
41219;SDS011;26951;47.338;9.196;2023-02-04T03:42:00;1.13;;;1.00;;
41219;SDS011;26951;47.338;9.196;2023-02-04T03:44:44;1.20;;;1.10;;
41219;SDS011;26951;47.338;9.196;2023-02-04T03:47:28;1.13;;;1.02;;
41219;SDS011;26951;47.338;9.196;2023-02-04T03:50:13;1.25;;;1.15;;
41219;SDS011;26951;47.338;9.196;2023-02-04T03:52:57;1.35;;;1.20;;
41219;SDS011;26951;47.338;9.196;2023-02-04T03:55:41;1.25;;;1.10;;
41219;SDS011;26951;47.338;9.196;2023-02-04T03:58:25;1.35;;;1.13;;
41219;SDS011;26951;47.338;9.196;2023-02-04T04:01:09;1.20;;;1.10;;
41219;SDS011;26951;47.338;9.196;2023-02-04T04:03:53;1.55;;;1.00;;
41219;SDS011;26951;47.338;9.196;2023-02-04T04:06:37;1.20;;;1.10;;
41219;SDS011;26951;47.338;9.196;2023-02-04T04:09:22;1.50;;;1.30;;
41219;SDS011;26951;47.338;9.196;2023-02-04T04:12:07;1.17;;;1.08;;
41219;SDS011;26951;47.338;9.196;2023-02-04T04:14:51;1.00;;;1.00;;
41219;SDS011;26951;47.338;9.196;2023-02-04T04:17:35;1.25;;;1.15;;
41219;SDS011;26951;47.338;9.196;2023-02-04T04:20:19;2.65;;;1.40;;
41219;SDS011;26951;47.338;9.196;2023-02-04T04:23:07;1.10;;;1.05;;
41219;SDS011;26951;47.338;9.196;2023-02-04T04:25:52;1.40;;;1.20;;
41219;SDS011;26951;47.338;9.196;2023-02-04T04:28:36;1.85;;;1.10;;
41219;SDS011;26951;47.338;9.196;2023-02-04T04:31:20;1.35;;;1.13;;
41219;SDS011;26951;47.338;9.196;2023-02-04T04:34:04;3.67;;;1.98;;
41219;SDS011;26951;47.338;9.196;2023-02-04T04:36:48;1.20;;;1.10;;
41219;SDS011;26951;47.338;9.196;2023-02-04T04:39:32;1.20;;;0.95;;
41219;SDS011;26951;47.338;9.196;2023-02-04T04:42:16;1.20;;;1.10;;
41219;SDS011;26951;47.338;9.196;2023-02-04T04:45:01;0.90;;;0.90;;
41219;SDS011;26951;47.338;9.196;2023-02-04T04:47:46;1.20;;;1.00;;
41219;SDS011;26951;47.338;9.196;2023-02-04T04:50:30;1.00;;;0.80;;
41219;SDS011;26951;47.338;9.196;2023-02-04T04:53:15;1.42;;;1.33;;
41219;SDS011;26951;47.338;9.196;2023-02-04T04:55:59;1.00;;;0.80;;
41219;SDS011;26951;47.338;9.196;2023-02-04T04:58:43;0.68;;;0.68;;
41219;SDS011;26951;47.338;9.196;2023-02-04T05:01:27;1.83;;;1.50;;
41219;SDS011;26951;47.338;9.196;2023-02-04T05:04:11;1.05;;;0.90;;
41219;SDS011;26951;47.338;9.196;2023-02-04T05:06:55;1.27;;;1.17;;
41219;SDS011;26951;47.338;9.196;2023-02-04T05:09:39;1.30;;;1.20;;
41219;SDS011;26951;47.338;9.196;2023-02-04T05:12:23;0.80;;;0.80;;
41219;SDS011;26951;47.338;9.196;2023-02-04T05:15:08;1.20;;;1.10;;
41219;SDS011;26951;47.338;9.196;2023-02-04T05:17:52;1.27;;;1.10;;
41219;SDS011;26951;47.338;9.196;2023-02-04T05:20:36;1.40;;;1.10;;
41219;SDS011;26951;47.338;9.196;2023-02-04T05:23:20;1.10;;;1.00;;
41219;SDS011;26951;47.338;9.196;2023-02-04T05:26:04;1.10;;;1.00;;
41219;SDS011;26951;47.338;9.196;2023-02-04T05:28:48;1.10;;;1.00;;
41219;SDS011;26951;47.338;9.196;2023-02-04T05:31:32;1.35;;;1.10;;
41219;SDS011;26951;47.338;9.196;2023-02-04T05:34:16;1.30;;;1.20;;
41219;SDS011;26951;47.338;9.196;2023-02-04T05:37:00;2.20;;;1.40;;
41219;SDS011;26951;47.338;9.196;2023-02-04T05:39:44;1.65;;;1.27;;
41219;SDS011;26951;47.338;9.196;2023-02-04T05:42:29;1.48;;;1.23;;
41219;SDS011;26951;47.338;9.196;2023-02-04T05:45:15;1.50;;;1.20;;
41219;SDS011;26951;47.338;9.196;2023-02-04T05:47:59;1.55;;;1.17;;
41219;SDS011;26951;47.338;9.196;2023-02-04T05:50:43;1.70;;;1.23;;
41219;SDS011;26951;47.338;9.196;2023-02-04T05:53:27;1.67;;;1.20;;
41219;SDS011;26951;47.338;9.196;2023-02-04T05:56:11;1.63;;;1.35;;
41219;SDS011;26951;47.338;9.196;2023-02-04T05:58:55;1.40;;;1.30;;
41219;SDS011;26951;47.338;9.196;2023-02-04T06:01:39;1.52;;;1.20;;
41219;SDS011;26951;47.338;9.196;2023-02-04T06:04:23;1.10;;;1.00;;
41219;SDS011;26951;47.338;9.196;2023-02-04T06:07:08;0.85;;;0.85;;
41219;SDS011;26951;47.338;9.196;2023-02-04T06:09:52;1.83;;;1.10;;
41219;SDS011;26951;47.338;9.196;2023-02-04T06:12:36;1.00;;;0.90;;
41219;SDS011;26951;47.338;9.196;2023-02-04T06:15:20;1.33;;;1.15;;
41219;SDS011;26951;47.338;9.196;2023-02-04T06:18:04;1.42;;;1.33;;
41219;SDS011;26951;47.338;9.196;2023-02-04T06:20:49;1.10;;;1.00;;
41219;SDS011;26951;47.338;9.196;2023-02-04T06:23:33;1.35;;;0.80;;
41219;SDS011;26951;47.338;9.196;2023-02-04T06:26:17;1.10;;;1.00;;
41219;SDS011;26951;47.338;9.196;2023-02-04T06:29:01;0.98;;;0.90;;
41219;SDS011;26951;47.338;9.196;2023-02-04T06:31:45;2.05;;;0.80;;
41219;SDS011;26951;47.338;9.196;2023-02-04T06:34:32;1.13;;;1.00;;
41219;SDS011;26951;47.338;9.196;2023-02-04T06:37:16;1.30;;;1.20;;
41219;SDS011;26951;47.338;9.196;2023-02-04T06:40:00;1.25;;;1.13;;
41219;SDS011;26951;47.338;9.196;2023-02-04T06:42:44;1.17;;;1.08;;
41219;SDS011;26951;47.338;9.196;2023-02-04T06:45:29;1.10;;;0.93;;
41219;SDS011;26951;47.338;9.196;2023-02-04T06:48:13;1.15;;;1.00;;
41219;SDS011;26951;47.338;9.196;2023-02-04T06:50:57;1.25;;;0.98;;
41219;SDS011;26951;47.338;9.196;2023-02-04T06:53:41;1.40;;;1.00;;
41219;SDS011;26951;47.338;9.196;2023-02-04T06:56:26;1.63;;;1.38;;
41219;SDS011;26951;47.338;9.196;2023-02-04T06:59:12;1.13;;;1.02;;
41219;SDS011;26951;47.338;9.196;2023-02-04T07:01:56;1.17;;;1.05;;
41219;SDS011;26951;47.338;9.196;2023-02-04T07:04:40;1.10;;;1.00;;
41219;SDS011;26951;47.338;9.196;2023-02-04T07:07:26;1.23;;;1.10;;
41219;SDS011;26951;47.338;9.196;2023-02-04T07:10:10;2.00;;;1.50;;
41219;SDS011;26951;47.338;9.196;2023-02-04T07:12:54;1.58;;;1.35;;
41219;SDS011;26951;47.338;9.196;2023-02-04T07:15:38;2.08;;;1.00;;
41219;SDS011;26951;47.338;9.196;2023-02-04T07:18:22;1.63;;;1.35;;
41219;SDS011;26951;47.338;9.196;2023-02-04T07:21:06;1.17;;;1.08;;
41219;SDS011;26951;47.338;9.196;2023-02-04T07:23:51;1.35;;;1.10;;
41219;SDS011;26951;47.338;9.196;2023-02-04T07:26:35;4.75;;;1.75;;
41219;SDS011;26951;47.338;9.196;2023-02-04T07:29:19;1.13;;;1.02;;
41219;SDS011;26951;47.338;9.196;2023-02-04T07:32:03;1.20;;;1.10;;
41219;SDS011;26951;47.338;9.196;2023-02-04T07:34:47;2.10;;;1.50;;
41219;SDS011;26951;47.338;9.196;2023-02-04T07:37:31;1.92;;;1.58;;
41219;SDS011;26951;47.338;9.196;2023-02-04T07:40:15;2.83;;;1.30;;
41219;SDS011;26951;47.338;9.196;2023-02-04T07:42:59;1.77;;;1.10;;
41219;SDS011;26951;47.338;9.196;2023-02-04T07:45:43;1.10;;;1.00;;
41219;SDS011;26951;47.338;9.196;2023-02-04T07:48:28;2.80;;;1.42;;
41219;SDS011;26951;47.338;9.196;2023-02-04T07:51:12;1.83;;;1.20;;
41219;SDS011;26951;47.338;9.196;2023-02-04T07:53:56;2.08;;;1.10;;
41219;SDS011;26951;47.338;9.196;2023-02-04T07:56:40;1.30;;;1.20;;
41219;SDS011;26951;47.338;9.196;2023-02-04T07:59:24;1.10;;;1.00;;
41219;SDS011;26951;47.338;9.196;2023-02-04T08:02:09;2.53;;;1.27;;
41219;SDS011;26951;47.338;9.196;2023-02-04T08:04:54;1.60;;;1.30;;
41219;SDS011;26951;47.338;9.196;2023-02-04T08:07:38;2.28;;;1.10;;
41219;SDS011;26951;47.338;9.196;2023-02-04T08:10:22;1.58;;;1.25;;
41219;SDS011;26951;47.338;9.196;2023-02-04T08:13:07;1.38;;;1.10;;
41219;SDS011;26951;47.338;9.196;2023-02-04T08:15:51;1.50;;;1.30;;
41219;SDS011;26951;47.338;9.196;2023-02-04T08:18:35;1.50;;;1.40;;
41219;SDS011;26951;47.338;9.196;2023-02-04T08:21:19;1.98;;;1.48;;
41219;SDS011;26951;47.338;9.196;2023-02-04T08:24:04;1.63;;;1.30;;
41219;SDS011;26951;47.338;9.196;2023-02-04T08:26:48;1.65;;;1.50;;
41219;SDS011;26951;47.338;9.196;2023-02-04T08:29:32;3.92;;;1.70;;
41219;SDS011;26951;47.338;9.196;2023-02-04T08:32:16;1.50;;;1.40;;
41219;SDS011;26951;47.338;9.196;2023-02-04T08:35:00;1.58;;;1.20;;
41219;SDS011;26951;47.338;9.196;2023-02-04T08:37:44;1.50;;;1.40;;
41219;SDS011;26951;47.338;9.196;2023-02-04T08:40:28;2.00;;;1.40;;
41219;SDS011;26951;47.338;9.196;2023-02-04T08:43:13;2.38;;;1.45;;
41219;SDS011;26951;47.338;9.196;2023-02-04T08:45:57;2.17;;;1.98;;
41219;SDS011;26951;47.338;9.196;2023-02-04T08:48:41;1.73;;;1.30;;
41219;SDS011;26951;47.338;9.196;2023-02-04T08:51:25;1.83;;;1.38;;
41219;SDS011;26951;47.338;9.196;2023-02-04T08:54:10;2.58;;;1.60;;
41219;SDS011;26951;47.338;9.196;2023-02-04T08:56:54;1.98;;;1.40;;
41219;SDS011;26951;47.338;9.196;2023-02-04T08:59:38;1.80;;;1.35;;
41219;SDS011;26951;47.338;9.196;2023-02-04T09:02:22;3.10;;;1.20;;
41219;SDS011;26951;47.338;9.196;2023-02-04T09:05:06;1.45;;;1.30;;
41219;SDS011;26951;47.338;9.196;2023-02-04T09:07:50;1.60;;;1.23;;
41219;SDS011;26951;47.338;9.196;2023-02-04T09:10:35;2.38;;;1.60;;
41219;SDS011;26951;47.338;9.196;2023-02-04T09:13:19;2.85;;;1.80;;
41219;SDS011;26951;47.338;9.196;2023-02-04T09:16:03;2.55;;;1.30;;
41219;SDS011;26951;47.338;9.196;2023-02-04T09:18:48;1.33;;;1.10;;
41219;SDS011;26951;47.338;9.196;2023-02-04T09:21:32;1.75;;;1.20;;
41219;SDS011;26951;47.338;9.196;2023-02-04T09:24:16;1.90;;;1.38;;
41219;SDS011;26951;47.338;9.196;2023-02-04T09:27:00;1.40;;;1.10;;
41219;SDS011;26951;47.338;9.196;2023-02-04T09:29:44;1.70;;;1.60;;
41219;SDS011;26951;47.338;9.196;2023-02-04T09:32:28;2.20;;;2.00;;
41219;SDS011;26951;47.338;9.196;2023-02-04T09:35:13;1.80;;;1.70;;
41219;SDS011;26951;47.338;9.196;2023-02-04T09:37:57;1.80;;;1.48;;
41219;SDS011;26951;47.338;9.196;2023-02-04T09:40:41;1.30;;;1.20;;
41219;SDS011;26951;47.338;9.196;2023-02-04T09:43:42;2.00;;;1.60;;
41219;SDS011;26951;47.338;9.196;2023-02-04T09:46:28;1.83;;;1.60;;
41219;SDS011;26951;47.338;9.196;2023-02-04T09:49:14;1.90;;;1.70;;
41219;SDS011;26951;47.338;9.196;2023-02-04T09:51:59;2.25;;;1.95;;
41219;SDS011;26951;47.338;9.196;2023-02-04T09:54:43;1.50;;;1.40;;
41219;SDS011;26951;47.338;9.196;2023-02-04T09:57:27;1.50;;;1.40;;
41219;SDS011;26951;47.338;9.196;2023-02-04T10:00:17;1.42;;;1.30;;
41219;SDS011;26951;47.338;9.196;2023-02-04T10:03:10;1.42;;;1.27;;
41219;SDS011;26951;47.338;9.196;2023-02-04T10:05:58;1.77;;;1.45;;
41219;SDS011;26951;47.338;9.196;2023-02-04T10:08:42;2.60;;;1.70;;
41219;SDS011;26951;47.338;9.196;2023-02-04T10:14:18;2.20;;;1.95;;
41219;SDS011;26951;47.338;9.196;2023-02-04T10:17:06;3.97;;;2.90;;
41219;SDS011;26951;47.338;9.196;2023-02-04T10:19:52;1.85;;;1.65;;
41219;SDS011;26951;47.338;9.196;2023-02-04T10:22:36;2.50;;;1.95;;
41219;SDS011;26951;47.338;9.196;2023-02-04T10:25:22;1.65;;;1.55;;
41219;SDS011;26951;47.338;9.196;2023-02-04T10:28:08;3.50;;;1.40;;
41219;SDS011;26951;47.338;9.196;2023-02-04T10:30:52;1.63;;;1.40;;
41219;SDS011;26951;47.338;9.196;2023-02-04T10:33:37;2.13;;;1.00;;
41219;SDS011;26951;47.338;9.196;2023-02-04T10:36:22;1.45;;;0.90;;
41219;SDS011;26951;47.338;9.196;2023-02-04T10:39:10;0.85;;;0.82;;
41219;SDS011;26951;47.338;9.196;2023-02-04T10:42:01;2.28;;;1.08;;
41219;SDS011;26951;47.338;9.196;2023-02-04T10:44:46;0.60;;;0.60;;
41219;SDS011;26951;47.338;9.196;2023-02-04T10:47:30;0.63;;;0.52;;
41219;SDS011;26951;47.338;9.196;2023-02-04T10:50:18;0.60;;;0.60;;
41219;SDS011;26951;47.338;9.196;2023-02-04T10:53:04;0.60;;;0.60;;
41219;SDS011;26951;47.338;9.196;2023-02-04T10:56:13;0.63;;;0.60;;
41219;SDS011;26951;47.338;9.196;2023-02-04T10:59:00;0.63;;;0.63;;
41219;SDS011;26951;47.338;9.196;2023-02-04T11:01:44;0.63;;;0.63;;
41219;SDS011;26951;47.338;9.196;2023-02-04T11:04:29;0.98;;;0.98;;
41219;SDS011;26951;47.338;9.196;2023-02-04T11:07:14;1.20;;;1.10;;
41219;SDS011;26951;47.338;9.196;2023-02-04T11:09:58;0.73;;;0.70;;
41219;SDS011;26951;47.338;9.196;2023-02-04T11:15:38;0.80;;;0.80;;
41219;SDS011;26951;47.338;9.196;2023-02-04T11:21:12;0.77;;;0.75;;
41219;SDS011;26951;47.338;9.196;2023-02-04T11:24:20;0.70;;;0.70;;
41219;SDS011;26951;47.338;9.196;2023-02-04T11:27:16;0.65;;;0.65;;
41219;SDS011;26951;47.338;9.196;2023-02-04T11:30:04;0.65;;;0.65;;
41219;SDS011;26951;47.338;9.196;2023-02-04T11:33:01;0.82;;;0.82;;
41219;SDS011;26951;47.338;9.196;2023-02-04T11:35:59;0.93;;;0.90;;
41219;SDS011;26951;47.338;9.196;2023-02-04T11:38:46;0.80;;;0.80;;
41219;SDS011;26951;47.338;9.196;2023-02-04T11:41:31;0.95;;;0.88;;
41219;SDS011;26951;47.338;9.196;2023-02-04T11:44:16;0.50;;;0.50;;
41219;SDS011;26951;47.338;9.196;2023-02-04T11:47:00;0.60;;;0.60;;
41219;SDS011;26951;47.338;9.196;2023-02-04T11:49:53;0.60;;;0.52;;
41219;SDS011;26951;47.338;9.196;2023-02-04T11:52:40;0.40;;;0.40;;
41219;SDS011;26951;47.338;9.196;2023-02-04T11:55:24;0.45;;;0.45;;
41219;SDS011;26951;47.338;9.196;2023-02-04T11:58:16;0.52;;;0.52;;
41219;SDS011;26951;47.338;9.196;2023-02-04T12:01:01;0.35;;;0.35;;
41219;SDS011;26951;47.338;9.196;2023-02-04T12:03:46;0.40;;;0.40;;
41219;SDS011;26951;47.338;9.196;2023-02-04T12:06:33;0.80;;;0.50;;
41219;SDS011;26951;47.338;9.196;2023-02-04T12:12:06;0.50;;;0.50;;
41219;SDS011;26951;47.338;9.196;2023-02-04T12:14:59;0.57;;;0.50;;
41219;SDS011;26951;47.338;9.196;2023-02-04T12:17:59;1.58;;;1.10;;
41219;SDS011;26951;47.338;9.196;2023-02-04T12:20:50;1.67;;;1.00;;
41219;SDS011;26951;47.338;9.196;2023-02-04T12:23:34;1.45;;;1.20;;
41219;SDS011;26951;47.338;9.196;2023-02-04T12:26:18;1.33;;;0.80;;
41219;SDS011;26951;47.338;9.196;2023-02-04T12:29:02;1.08;;;0.98;;
41219;SDS011;26951;47.338;9.196;2023-02-04T12:31:47;3.05;;;1.42;;
41219;SDS011;26951;47.338;9.196;2023-02-04T12:34:32;1.63;;;1.33;;
41219;SDS011;26951;47.338;9.196;2023-02-04T12:37:16;3.90;;;1.92;;
41219;SDS011;26951;47.338;9.196;2023-02-04T12:40:00;1.75;;;1.30;;
41219;SDS011;26951;47.338;9.196;2023-02-04T12:42:44;4.30;;;1.75;;
41219;SDS011;26951;47.338;9.196;2023-02-04T12:45:28;2.88;;;1.70;;
41219;SDS011;26951;47.338;9.196;2023-02-04T12:48:13;3.58;;;1.67;;
41219;SDS011;26951;47.338;9.196;2023-02-04T12:50:57;1.43;;;1.20;;
41219;SDS011;26951;47.338;9.196;2023-02-04T12:53:41;3.20;;;2.15;;
41219;SDS011;26951;47.338;9.196;2023-02-04T12:56:25;1.70;;;1.60;;
41219;SDS011;26951;47.338;9.196;2023-02-04T12:59:09;5.97;;;1.85;;
41219;SDS011;26951;47.338;9.196;2023-02-04T13:01:53;5.43;;;1.95;;
41219;SDS011;26951;47.338;9.196;2023-02-04T13:04:38;5.72;;;2.33;;
41219;SDS011;26951;47.338;9.196;2023-02-04T13:07:23;5.05;;;2.40;;
41219;SDS011;26951;47.338;9.196;2023-02-04T13:10:08;4.90;;;2.33;;
41219;SDS011;26951;47.338;9.196;2023-02-04T13:12:52;5.07;;;3.15;;
41219;SDS011;26951;47.338;9.196;2023-02-04T13:15:36;4.90;;;2.55;;
41219;SDS011;26951;47.338;9.196;2023-02-04T13:18:22;10.18;;;4.68;;
41219;SDS011;26951;47.338;9.196;2023-02-04T13:21:06;7.07;;;2.55;;
41219;SDS011;26951;47.338;9.196;2023-02-04T13:23:50;4.82;;;3.15;;
41219;SDS011;26951;47.338;9.196;2023-02-04T13:26:34;4.53;;;2.67;;
41219;SDS011;26951;47.338;9.196;2023-02-04T13:29:19;6.35;;;2.70;;
41219;SDS011;26951;47.338;9.196;2023-02-04T13:32:04;6.38;;;2.90;;
41219;SDS011;26951;47.338;9.196;2023-02-04T13:34:48;5.50;;;2.92;;
41219;SDS011;26951;47.338;9.196;2023-02-04T13:37:32;6.00;;;2.75;;
41219;SDS011;26951;47.338;9.196;2023-02-04T13:40:17;5.68;;;3.42;;
41219;SDS011;26951;47.338;9.196;2023-02-04T13:43:01;7.05;;;3.35;;
41219;SDS011;26951;47.338;9.196;2023-02-04T13:45:45;4.68;;;3.72;;
41219;SDS011;26951;47.338;9.196;2023-02-04T13:48:31;6.55;;;3.08;;
41219;SDS011;26951;47.338;9.196;2023-02-04T13:51:15;4.68;;;3.20;;
41219;SDS011;26951;47.338;9.196;2023-02-04T13:53:59;7.30;;;3.92;;
41219;SDS011;26951;47.338;9.196;2023-02-04T13:56:43;8.45;;;3.90;;
41219;SDS011;26951;47.338;9.196;2023-02-04T13:59:27;9.15;;;3.65;;
41219;SDS011;26951;47.338;9.196;2023-02-04T14:02:11;6.80;;;3.35;;
41219;SDS011;26951;47.338;9.196;2023-02-04T14:04:56;7.72;;;3.45;;
41219;SDS011;26951;47.338;9.196;2023-02-04T14:07:41;7.72;;;4.28;;
41219;SDS011;26951;47.338;9.196;2023-02-04T14:10:25;10.48;;;4.22;;
41219;SDS011;26951;47.338;9.196;2023-02-04T14:13:09;10.10;;;4.90;;
41219;SDS011;26951;47.338;9.196;2023-02-04T14:15:53;6.93;;;3.78;;
41219;SDS011;26951;47.338;9.196;2023-02-04T14:18:37;10.15;;;3.95;;
41219;SDS011;26951;47.338;9.196;2023-02-04T14:21:21;10.50;;;3.83;;
41219;SDS011;26951;47.338;9.196;2023-02-04T14:24:06;8.45;;;4.00;;
41219;SDS011;26951;47.338;9.196;2023-02-04T14:26:50;7.72;;;4.38;;
41219;SDS011;26951;47.338;9.196;2023-02-04T14:29:34;7.07;;;4.32;;
41219;SDS011;26951;47.338;9.196;2023-02-04T14:32:19;12.43;;;5.07;;
41219;SDS011;26951;47.338;9.196;2023-02-04T14:35:03;9.05;;;4.57;;
41219;SDS011;26951;47.338;9.196;2023-02-04T14:37:48;8.70;;;3.85;;
41219;SDS011;26951;47.338;9.196;2023-02-04T14:40:32;9.32;;;3.92;;
41219;SDS011;26951;47.338;9.196;2023-02-04T14:43:16;8.57;;;3.97;;
41219;SDS011;26951;47.338;9.196;2023-02-04T14:46:00;9.05;;;4.45;;
41219;SDS011;26951;47.338;9.196;2023-02-04T14:48:45;10.25;;;4.53;;
41219;SDS011;26951;47.338;9.196;2023-02-04T14:51:29;12.48;;;4.85;;
41219;SDS011;26951;47.338;9.196;2023-02-04T14:54:13;7.18;;;3.92;;
41219;SDS011;26951;47.338;9.196;2023-02-04T14:56:58;8.75;;;3.78;;
41219;SDS011;26951;47.338;9.196;2023-02-04T14:59:42;8.15;;;4.80;;
41219;SDS011;26951;47.338;9.196;2023-02-04T15:02:26;9.55;;;4.63;;
41219;SDS011;26951;47.338;9.196;2023-02-04T15:05:11;8.20;;;4.70;;
41219;SDS011;26951;47.338;9.196;2023-02-04T15:07:56;6.63;;;4.28;;
41219;SDS011;26951;47.338;9.196;2023-02-04T15:10:40;7.60;;;5.05;;
41219;SDS011;26951;47.338;9.196;2023-02-04T15:13:24;9.73;;;5.32;;
41219;SDS011;26951;47.338;9.196;2023-02-04T15:16:08;8.40;;;4.88;;
41219;SDS011;26951;47.338;9.196;2023-02-04T15:18:54;8.60;;;4.97;;
41219;SDS011;26951;47.338;9.196;2023-02-04T15:21:38;12.25;;;7.78;;
41219;SDS011;26951;47.338;9.196;2023-02-04T15:24:23;8.70;;;5.88;;
41219;SDS011;26951;47.338;9.196;2023-02-04T15:27:09;7.57;;;4.97;;
41219;SDS011;26951;47.338;9.196;2023-02-04T15:29:53;6.88;;;4.63;;
41219;SDS011;26951;47.338;9.196;2023-02-04T15:32:37;10.10;;;4.43;;
41219;SDS011;26951;47.338;9.196;2023-02-04T15:35:23;6.70;;;4.05;;
41219;SDS011;26951;47.338;9.196;2023-02-04T15:38:08;8.95;;;4.68;;
41219;SDS011;26951;47.338;9.196;2023-02-04T15:40:52;10.13;;;5.07;;
41219;SDS011;26951;47.338;9.196;2023-02-04T15:43:37;12.70;;;5.22;;
41219;SDS011;26951;47.338;9.196;2023-02-04T15:46:21;10.52;;;4.72;;
41219;SDS011;26951;47.338;9.196;2023-02-04T15:49:05;11.13;;;4.93;;
41219;SDS011;26951;47.338;9.196;2023-02-04T15:51:49;11.50;;;4.90;;
41219;SDS011;26951;47.338;9.196;2023-02-04T15:54:33;6.72;;;4.47;;
41219;SDS011;26951;47.338;9.196;2023-02-04T15:57:17;7.25;;;4.80;;
41219;SDS011;26951;47.338;9.196;2023-02-04T16:00:02;6.60;;;4.18;;
41219;SDS011;26951;47.338;9.196;2023-02-04T16:02:47;11.45;;;4.20;;
41219;SDS011;26951;47.338;9.196;2023-02-04T16:05:32;9.18;;;4.72;;
41219;SDS011;26951;47.338;9.196;2023-02-04T16:08:16;8.07;;;4.28;;
41219;SDS011;26951;47.338;9.196;2023-02-04T16:11:00;7.53;;;4.38;;
41219;SDS011;26951;47.338;9.196;2023-02-04T16:13:45;8.38;;;4.40;;
41219;SDS011;26951;47.338;9.196;2023-02-04T16:16:29;6.25;;;4.53;;
41219;SDS011;26951;47.338;9.196;2023-02-04T16:19:14;6.25;;;3.90;;
41219;SDS011;26951;47.338;9.196;2023-02-04T16:21:58;7.18;;;3.40;;
41219;SDS011;26951;47.338;9.196;2023-02-04T16:24:42;6.80;;;4.00;;
41219;SDS011;26951;47.338;9.196;2023-02-04T16:27:27;7.18;;;3.53;;
41219;SDS011;26951;47.338;9.196;2023-02-04T16:30:11;7.13;;;4.32;;
41219;SDS011;26951;47.338;9.196;2023-02-04T16:32:56;5.60;;;3.50;;
41219;SDS011;26951;47.338;9.196;2023-02-04T16:35:57;7.47;;;4.07;;
41219;SDS011;26951;47.338;9.196;2023-02-04T16:38:50;6.75;;;3.95;;
41219;SDS011;26951;47.338;9.196;2023-02-04T16:41:34;7.47;;;3.92;;
41219;SDS011;26951;47.338;9.196;2023-02-04T16:44:19;7.93;;;4.20;;
41219;SDS011;26951;47.338;9.196;2023-02-04T16:47:04;7.78;;;4.55;;
41219;SDS011;26951;47.338;9.196;2023-02-04T16:49:49;22.33;;;13.23;;